Time;durP1;ratioP1;P1;durP2;ratioP2;P2;SDS_P1;SDS_P2;PMS_P1;PMS_P2;Temp;Humidity;BMP_temperature;BMP_pressure;BME280_temperature;BME280_humidity;BME280_pressure;Samples;Min_cycle;Max_cycle;Signal;HPM_P1;HPM_P2
2022/03/03 00:02:02;;;;;;;14.57;5.80;;;-0.60;99.90;;;;;;5032158;28;20065;-61
2022/03/03 00:04:29;;;;;;;;;;;-0.60;99.90;;;;;;5031274;28;20044;-61
2022/03/03 00:06:55;;;;;;;9.85;4.30;;;-0.60;99.90;;;;;;5031675;28;19921;-61
2022/03/03 00:09:22;;;;;;;15.73;5.10;;;-0.60;99.90;;;;;;5031454;28;20577;-61
2022/03/03 00:11:49;;;;;;;11.23;4.70;;;-0.60;99.90;;;;;;5031859;28;20060;-61
2022/03/03 00:14:16;;;;;;;10.23;4.07;;;-0.60;99.90;;;;;;5024578;28;20042;-61
2022/03/03 00:16:43;;;;;;;8.88;3.88;;;-0.60;99.90;;;;;;5031645;28;20042;-61
2022/03/03 00:19:10;;;;;;;6.90;3.33;;;-0.60;99.90;;;;;;5030990;28;20045;-62
2022/03/03 00:21:37;;;;;;;7.13;2.88;;;-0.60;99.90;;;;;;5031117;28;20398;-61
2022/03/03 00:24:04;;;;;;;6.10;3.05;;;-0.60;99.90;;;;;;5031437;28;20045;-62
2022/03/03 00:26:31;;;;;;;6.18;3.13;;;-0.60;99.90;;;;;;5031772;28;20046;-62
2022/03/03 00:28:58;;;;;;;8.32;3.83;;;-0.60;99.90;;;;;;5031069;28;20053;-62
2022/03/03 00:31:24;;;;;;;7.50;3.72;;;-0.60;99.90;;;;;;5026764;28;20498;-61
2022/03/03 00:33:51;;;;;;;9.18;4.32;;;-0.70;99.90;;;;;;5031080;28;20445;-62
2022/03/03 00:36:18;;;;;;;6.53;3.47;;;-0.70;99.90;;;;;;5031590;28;20051;-62
2022/03/03 00:38:45;;;;;;;8.77;3.60;;;-0.70;99.90;;;;;;5031136;28;20050;-62
2022/03/03 00:41:12;;;;;;;6.35;3.40;;;-0.70;99.90;;;;;;5023074;28;20128;-62
2022/03/03 00:43:39;;;;;;;6.03;2.33;;;-0.70;99.90;;;;;;5031103;28;20052;-62
2022/03/03 00:46:06;;;;;;;9.30;3.90;;;-0.70;99.90;;;;;;5031447;28;20124;-61
2022/03/03 00:48:32;;;;;;;7.50;3.72;;;-0.70;99.90;;;;;;5032371;28;20747;-62
2022/03/03 00:51:00;;;;;;;7.78;3.70;;;-0.70;99.90;;;;;;5037648;28;20045;-62
2022/03/03 00:53:26;;;;;;;;;;;-0.80;99.90;;;;;;5038269;28;20087;-62
2022/03/03 00:55:53;;;;;;;7.30;3.38;;;-0.90;99.90;;;;;;5037829;28;19924;-61
2022/03/03 00:58:20;;;;;;;7.35;3.78;;;-0.90;99.90;;;;;;5031040;28;20057;-61
2022/03/03 01:00:47;;;;;;;7.15;3.60;;;-0.90;99.90;;;;;;5037825;28;20091;-62
2022/03/03 01:03:14;;;;;;;10.45;3.78;;;-0.90;99.90;;;;;;5037760;28;20048;-61
2022/03/03 01:05:41;;;;;;;11.70;5.05;;;-0.90;99.90;;;;;;5032045;28;20068;-61
2022/03/03 01:08:10;;;;;;;9.10;4.38;;;-0.90;99.90;;;;;;5037341;28;20083;-61
2022/03/03 01:10:38;;;;;;;10.90;4.55;;;-0.90;99.90;;;;;;5037680;28;20053;-62
2022/03/03 01:13:05;;;;;;;11.65;4.93;;;-0.90;99.90;;;;;;5038248;28;20049;-62
2022/03/03 01:15:32;;;;;;;13.38;5.93;;;-0.90;99.90;;;;;;5035129;28;20048;-62
2022/03/03 01:17:59;;;;;;;13.63;6.00;;;-0.90;99.90;;;;;;5037354;28;20053;-62
2022/03/03 01:20:27;;;;;;;13.65;6.20;;;-0.90;99.90;;;;;;5037655;28;20041;-62
2022/03/03 01:22:55;;;;;;;15.93;5.72;;;-0.90;99.90;;;;;;5037688;28;20045;-61
2022/03/03 01:25:22;;;;;;;16.15;6.72;;;-0.90;99.90;;;;;;5031299;28;20044;-62
2022/03/03 01:27:49;;;;;;;18.00;6.13;;;-0.90;99.90;;;;;;5037129;28;20445;-62
2022/03/03 01:30:16;;;;;;;10.25;5.10;;;-0.90;99.90;;;;;;5037387;28;20455;-62
2022/03/03 01:32:43;;;;;;;9.73;4.75;;;-1.00;99.90;;;;;;5037414;28;20498;-62
2022/03/03 01:35:10;;;;;;;6.53;3.78;;;-1.10;99.90;;;;;;5029688;28;20371;-62
2022/03/03 01:37:37;;;;;;;9.52;4.32;;;-1.30;99.90;;;;;;5031574;28;20049;-62
2022/03/03 01:40:05;;;;;;;13.77;5.20;;;-1.40;99.90;;;;;;5034032;28;20046;-61
2022/03/03 01:42:32;;;;;;;11.70;4.32;;;-1.40;99.90;;;;;;5030136;28;20042;-62
2022/03/03 01:44:59;;;;;;;9.43;4.00;;;-1.40;99.90;;;;;;5037383;28;20080;-62
2022/03/03 01:47:27;;;;;;;11.60;4.95;;;-1.40;99.90;;;;;;5036436;28;20041;-62
2022/03/03 01:49:57;;;;;;;9.20;4.32;;;-1.50;99.90;;;;;;5036779;28;20053;-61
2022/03/03 01:52:24;;;;;;;12.25;5.47;;;-1.50;99.90;;;;;;5048989;28;20037;-61
2022/03/03 01:54:52;;;;;;;9.13;4.85;;;-1.50;99.90;;;;;;5037432;28;20041;-62
2022/03/03 01:57:20;;;;;;;8.60;4.07;;;-1.50;99.90;;;;;;5037207;28;20049;-62
2022/03/03 01:59:48;;;;;;;7.80;3.75;;;-1.50;99.90;;;;;;5034537;28;20413;-62
2022/03/03 02:02:15;;;;;;;12.02;3.90;;;-1.50;99.90;;;;;;5033766;28;20045;-61
2022/03/03 02:04:42;;;;;;;;;;;-1.50;99.90;;;;;;5034754;28;20041;-62
2022/03/03 02:07:10;;;;;;;7.60;3.45;;;-1.50;99.90;;;;;;5034326;28;19970;-62
2022/03/03 02:09:39;;;;;;;8.50;3.35;;;-1.50;99.90;;;;;;5031406;28;20045;-62
2022/03/03 02:12:06;;;;;;;6.22;3.38;;;-1.60;99.90;;;;;;5033671;28;20033;-62
2022/03/03 02:14:48;;;;;;;;;;;-1.60;99.90;;;;;;5034538;28;20037;-62
2022/03/03 02:17:16;;;;;;;6.38;2.58;;;-1.60;99.90;;;;;;5034071;28;19952;-62
2022/03/03 02:19:43;;;;;;;8.20;2.95;;;-1.60;99.90;;;;;;5028774;28;20034;-62
2022/03/03 02:22:10;;;;;;;6.63;2.97;;;-1.50;99.90;;;;;;5033806;28;20556;-62
2022/03/03 02:24:38;;;;;;;7.80;3.00;;;-1.60;99.90;;;;;;5033677;28;20076;-62
2022/03/03 02:27:06;;;;;;;7.00;3.05;;;-1.60;99.90;;;;;;5025314;28;20045;-62
2022/03/03 02:29:33;;;;;;;14.95;3.33;;;-1.60;99.90;;;;;;5033402;28;20113;-62
2022/03/03 02:32:01;;;;;;;7.47;2.85;;;-1.60;99.90;;;;;;5033733;28;20046;-62
2022/03/03 02:34:28;;;;;;;8.05;3.58;;;-1.60;99.90;;;;;;5074564;22;20419;-57
2022/03/03 02:36:55;;;;;;;4.45;2.28;;;-1.50;99.90;;;;;;5072814;28;20045;-55
2022/03/03 02:39:22;;;;;;;6.93;2.55;;;-1.50;99.90;;;;;;5073160;28;20055;-57
2022/03/03 02:41:49;;;;;;;8.52;2.80;;;-1.50;99.90;;;;;;5072315;28;20036;-56
2022/03/03 02:44:16;;;;;;;7.88;2.70;;;-1.50;99.90;;;;;;5062910;28;20041;-55
2022/03/03 02:46:43;;;;;;;7.60;3.42;;;-1.50;99.90;;;;;;5053412;28;20494;-55
2022/03/03 02:49:10;;;;;;;13.50;4.53;;;-1.60;99.90;;;;;;5052928;28;20052;-57
2022/03/03 02:51:36;;;;;;;10.35;4.15;;;-1.60;99.90;;;;;;5064696;28;20040;-58
2022/03/03 02:54:04;;;;;;;9.82;3.88;;;-1.70;99.90;;;;;;5073070;28;20131;-58
2022/03/03 02:56:31;;;;;;;8.13;3.80;;;-1.70;99.90;;;;;;5073232;28;20063;-58
2022/03/03 02:58:58;;;;;;;5.63;2.50;;;-1.70;99.90;;;;;;5062099;28;20431;-57
2022/03/03 03:01:25;;;;;;;7.78;3.95;;;-1.80;99.90;;;;;;5033411;28;20095;-59
2022/03/03 03:03:52;;;;;;;;;;;-1.80;99.90;;;;;;5033387;28;20053;-57
2022/03/03 03:06:19;;;;;;;9.55;4.05;;;-1.80;99.90;;;;;;5045393;28;20003;-58
2022/03/03 03:08:46;;;;;;;10.43;3.28;;;-1.80;99.90;;;;;;5064182;28;20093;-53
2022/03/03 03:11:13;;;;;;;10.75;4.18;;;-1.80;99.90;;;;;;5072530;28;20040;-56
2022/03/03 03:13:39;;;;;;;11.18;4.55;;;-1.80;99.90;;;;;;5072243;28;20067;-57
2022/03/03 03:16:08;;;;;;;12.95;4.07;;;-1.90;99.90;;;;;;5063049;28;20040;-58
2022/03/03 03:18:35;;;;;;;9.20;4.13;;;-1.90;99.90;;;;;;5063897;28;20040;-56
2022/03/03 03:21:02;;;;;;;13.15;4.25;;;-1.90;99.90;;;;;;5072600;28;20451;-54
2022/03/03 03:23:28;;;;;;;7.78;3.25;;;-2.00;99.90;;;;;;5070458;28;20500;-55
2022/03/03 03:25:55;;;;;;;12.65;5.40;;;-2.10;99.90;;;;;;5064240;28;20037;-54
2022/03/03 03:28:23;;;;;;;14.70;5.88;;;-2.00;99.90;;;;;;5072158;28;20455;-57
2022/03/03 03:30:51;;;;;;;9.70;4.32;;;-2.10;99.90;;;;;;5069029;28;20044;-58
2022/03/03 03:33:18;;;;;;;12.07;3.90;;;-2.10;99.90;;;;;;5061555;28;20102;-57
2022/03/03 03:35:45;;;;;;;9.25;3.78;;;-2.10;99.90;;;;;;5072420;28;20040;-58
2022/03/03 03:38:12;;;;;;;7.70;3.20;;;-2.10;99.90;;;;;;5072162;28;20044;-58
2022/03/03 03:40:39;;;;;;;8.45;3.67;;;-2.00;99.90;;;;;;5065552;28;20090;-58
2022/03/03 03:43:06;;;;;;;;;;;-2.00;99.90;;;;;;5062131;28;20076;-57
2022/03/03 03:45:34;;;;;;;15.05;5.45;;;-2.00;99.90;;;;;;5072092;28;19921;-57
2022/03/03 03:48:01;;;;;;;12.95;4.93;;;-2.00;99.90;;;;;;5072006;28;20382;-58
2022/03/03 03:50:28;;;;;;;;;;;-2.00;99.90;;;;;;5069825;28;20044;-58
2022/03/03 03:52:55;;;;;;;7.75;2.53;;;-2.00;99.90;;;;;;5063705;28;19921;-58
2022/03/03 03:55:23;;;;;;;9.48;3.22;;;-2.00;99.90;;;;;;5072088;28;20047;-59
2022/03/03 03:57:50;;;;;;;;;;;-2.00;99.90;;;;;;5069012;28;20488;-58
2022/03/03 04:00:17;;;;;;;15.15;4.75;;;-2.10;99.90;;;;;;5062344;28;19921;-56
2022/03/03 04:02:45;;;;;;;9.50;3.75;;;-2.10;99.90;;;;;;5071785;28;20102;-57
2022/03/03 04:05:13;;;;;;;12.50;5.03;;;-2.10;99.90;;;;;;5071979;28;20040;-57
2022/03/03 04:07:41;;;;;;;15.43;5.30;;;-2.10;99.90;;;;;;5061512;28;20040;-58
2022/03/03 04:10:09;;;;;;;13.93;5.68;;;-2.10;99.90;;;;;;5063401;28;20044;-57
2022/03/03 04:12:36;;;;;;;12.45;5.05;;;-2.10;99.90;;;;;;5071770;28;20041;-56
2022/03/03 04:15:03;;;;;;;8.60;3.67;;;-2.10;99.90;;;;;;5063611;28;20033;-58
2022/03/03 04:17:31;;;;;;;12.60;5.30;;;-2.20;99.90;;;;;;5062794;28;20064;-58
2022/03/03 04:20:05;;;;;;;16.15;5.05;;;-2.30;99.90;;;;;;5071756;28;20070;-57
2022/03/03 04:22:33;;;;;;;14.38;5.78;;;-2.30;99.90;;;;;;5071491;28;20067;-53
2022/03/03 04:25:00;;;;;;;8.57;3.80;;;-2.30;99.90;;;;;;5058860;28;20044;-57
2022/03/03 04:27:27;;;;;;;7.80;3.35;;;-2.40;99.90;;;;;;5071280;28;20052;-58
2022/03/03 04:29:54;;;;;;;8.52;3.83;;;-2.30;99.90;;;;;;5071520;28;20040;-57
2022/03/03 04:32:21;;;;;;;7.75;3.40;;;-2.40;99.90;;;;;;5050803;28;20488;-57
2022/03/03 04:34:48;;;;;;;10.10;3.83;;;-2.40;99.90;;;;;;5059620;28;20094;-58
2022/03/03 04:37:14;;;;;;;8.45;3.45;;;-2.30;99.90;;;;;;5053831;28;20079;-58
2022/03/03 04:39:41;;;;;;;7.15;2.78;;;-2.30;99.90;;;;;;5033576;28;20033;-58
2022/03/03 04:42:08;;;;;;;7.30;2.92;;;-2.40;99.90;;;;;;5056485;28;20053;-55
2022/03/03 04:44:35;;;;;;;9.50;3.05;;;-2.40;99.90;;;;;;5049071;28;20086;-58
2022/03/03 04:47:02;;;;;;;4.30;2.45;;;-2.40;99.90;;;;;;5047586;28;20133;-58
2022/03/03 04:49:29;;;;;;;;;;;-2.40;99.90;;;;;;5063183;28;20044;-56
2022/03/03 04:51:56;;;;;;;6.40;2.80;;;-2.40;99.90;;;;;;5055240;28;19920;-56
2022/03/03 04:54:23;;;;;;;7.15;3.03;;;-2.50;99.90;;;;;;5050874;28;20098;-57
2022/03/03 04:56:51;;;;;;;5.45;2.80;;;-2.50;99.90;;;;;;5046579;28;20389;-55
2022/03/03 04:59:18;;;;;;;7.80;4.00;;;-2.60;99.90;;;;;;5061466;28;20055;-57
2022/03/03 05:01:45;;;;;;;11.40;3.92;;;-2.60;99.90;;;;;;5071360;28;20040;-57
2022/03/03 05:04:12;;;;;;;8.95;3.70;;;-2.50;99.90;;;;;;5069263;28;20114;-58
2022/03/03 05:06:45;;;;;;;9.68;3.88;;;-2.50;99.90;;;;;;5054662;28;20051;-58
2022/03/03 05:09:12;;;;;;;10.38;4.10;;;-2.50;99.90;;;;;;5030673;28;20111;-58
2022/03/03 05:11:39;;;;;;;11.18;5.07;;;-2.50;99.90;;;;;;5031275;28;20050;-58
2022/03/03 05:14:06;;;;;;;13.60;6.53;;;-2.60;99.90;;;;;;5051169;28;20106;-57
2022/03/03 05:16:33;;;;;;;19.35;8.25;;;-2.50;99.90;;;;;;5047522;28;20045;-57
2022/03/03 05:19:00;;;;;;;19.73;8.23;;;-2.50;99.90;;;;;;5032941;28;20045;-59
2022/03/03 05:21:27;;;;;;;7.82;3.70;;;-2.50;99.90;;;;;;5037864;28;20048;-57
2022/03/03 05:23:54;;;;;;;11.30;5.30;;;-2.50;99.90;;;;;;5062696;28;20040;-56
2022/03/03 05:26:20;;;;;;;13.50;5.93;;;-2.60;99.90;;;;;;5056410;28;20079;-57
2022/03/03 05:28:47;;;;;;;15.82;6.28;;;-2.80;99.90;;;;;;5044569;28;20095;-58
2022/03/03 05:31:14;;;;;;;17.27;6.80;;;-2.90;99.90;;;;;;5059896;28;20417;-58
2022/03/03 05:33:42;;;;;;;17.08;7.57;;;-3.10;99.90;;;;;;5070691;28;20028;-52
2022/03/03 05:36:10;;;;;;;17.73;7.25;;;-3.00;99.90;;;;;;5057041;28;20041;-58
2022/03/03 05:38:37;;;;;;;14.98;5.90;;;-3.00;99.90;;;;;;5060182;28;20064;-57
2022/03/03 05:41:05;;;;;;;;;;;-2.90;99.90;;;;;;5072281;28;20094;-57
2022/03/03 05:43:33;;;;;;;14.63;6.43;;;-2.80;99.90;;;;;;5074457;28;19920;-58
2022/03/03 05:46:00;;;;;;;17.13;6.75;;;-2.80;99.90;;;;;;5063454;28;20063;-57
2022/03/03 05:48:27;;;;;;;;;;;-2.80;99.90;;;;;;5045669;28;20048;-56
2022/03/03 05:50:55;;;;;;;25.10;7.93;;;-2.80;99.90;;;;;;5044087;28;20007;-54
2022/03/03 05:53:23;;;;;;;20.45;8.00;;;-2.80;99.90;;;;;;5043065;28;20037;-57
2022/03/03 05:55:59;;;;;;;16.05;8.00;;;-2.80;99.90;;;;;;5044448;28;20037;-53
2022/03/03 05:58:36;;;;;;;18.20;7.38;;;-2.70;99.90;;;;;;5045110;28;20567;-56
2022/03/03 06:01:03;;;;;;;15.38;7.05;;;-2.70;99.90;;;;;;5042724;28;20437;-52
2022/03/03 06:03:33;;;;;;;19.40;7.72;;;-2.60;99.90;;;;;;5044654;28;20462;-56
2022/03/03 06:06:21;;;;;;;25.48;7.85;;;-2.60;99.90;;;;;;5045965;28;20041;-57
2022/03/03 06:09:11;;;;;;;18.83;6.55;;;-2.70;99.90;;;;;;5042703;28;20064;-56
2022/03/03 06:12:26;;;;;;;16.02;5.78;;;-2.70;99.90;;;;;;5044109;28;20044;-54
2022/03/03 06:14:59;;;;;;;9.35;4.78;;;-2.70;99.90;;;;;;5016916;28;20067;-57
2022/03/03 06:17:26;;;;;;;10.57;5.30;;;-2.60;99.90;;;;;;5011471;28;20104;-56
2022/03/03 06:19:53;;;;;;;9.27;4.85;;;-2.50;99.90;;;;;;5036343;28;20053;-56
2022/03/03 06:22:20;;;;;;;11.55;5.20;;;-2.40;99.90;;;;;;5060851;28;20114;-57
2022/03/03 06:24:48;;;;;;;15.00;4.90;;;-2.40;99.90;;;;;;5068496;28;20040;-54
2022/03/03 06:27:15;;;;;;;11.70;5.45;;;-2.40;99.90;;;;;;5073480;28;20109;-55
2022/03/03 06:29:42;;;;;;;11.57;5.18;;;-2.40;99.90;;;;;;5068790;28;20457;-57
2022/03/03 06:32:11;;;;;;;9.57;4.40;;;-2.30;99.90;;;;;;5062899;28;20083;-56
2022/03/03 06:34:38;;;;;;;13.45;4.97;;;-2.30;99.90;;;;;;5073462;28;20106;-56
2022/03/03 06:37:05;;;;;;;18.00;7.40;;;-2.30;99.90;;;;;;5073174;28;20046;-56
2022/03/03 06:39:33;;;;;;;17.92;8.68;;;-2.30;99.90;;;;;;5060398;28;20048;-52
2022/03/03 06:41:59;;;;;;;26.52;8.52;;;-2.40;99.90;;;;;;5069915;28;20045;-54
2022/03/03 06:44:26;;;;;;;17.75;6.80;;;-2.40;99.90;;;;;;5056942;28;20109;-53
2022/03/03 06:46:54;;;;;;;11.00;4.70;;;-2.30;99.90;;;;;;5051146;28;20040;-52
2022/03/03 06:49:22;;;;;;;10.43;4.85;;;-2.50;99.90;;;;;;5064333;28;20037;-56
2022/03/03 06:51:49;;;;;;;;;;;-2.50;99.90;;;;;;5073514;28;20539;-55
2022/03/03 06:54:18;;;;;;;21.30;9.02;;;-2.40;99.90;;;;;;5066617;28;19975;-55
2022/03/03 06:56:50;;;;;;;26.52;9.45;;;-2.30;99.90;;;;;;5064596;28;20044;-53
2022/03/03 06:59:21;;;;;;;13.98;5.60;;;-2.20;99.90;;;;;;5070841;28;20059;-53
2022/03/03 07:01:49;;;;;;;15.20;6.25;;;-2.30;99.90;;;;;;5073118;28;20032;-57
2022/03/03 07:04:18;;;;;;;13.13;6.03;;;-2.40;99.90;;;;;;5066714;28;20036;-57
2022/03/03 07:06:46;;;;;;;18.25;7.22;;;-2.50;99.90;;;;;;5067543;28;20519;-54
2022/03/03 07:09:14;;;;;;;17.77;7.85;;;-2.50;99.90;;;;;;5072388;28;20071;-53
2022/03/03 07:11:43;;;;;;;17.35;8.27;;;-2.30;99.90;;;;;;5072709;28;20106;-56
2022/03/03 07:14:10;;;;;;;18.73;8.55;;;-2.20;99.90;;;;;;5064553;28;20109;-54
2022/03/03 07:16:39;;;;;;;;;;;-2.00;99.90;;;;;;5066633;28;20082;-57
2022/03/03 07:19:17;;;;;;;18.20;8.32;;;-1.80;99.90;;;;;;5072606;28;20295;-51
2022/03/03 07:21:50;;;;;;;;;;;-1.60;99.90;;;;;;5073227;28;20052;-55
2022/03/03 07:24:43;;;;;;;18.60;7.93;;;-1.40;99.90;;;;;;5062514;28;19928;-56
2022/03/03 07:27:21;;;;;;;17.75;8.30;;;-1.20;99.90;;;;;;5067962;28;20505;-55
2022/03/03 07:29:58;;;;;;;17.80;8.60;;;-0.90;99.90;;;;;;5068785;28;20082;-53
2022/03/03 07:32:34;;;;;;;17.95;8.90;;;-1.00;99.90;;;;;;5052339;28;20064;-56
2022/03/03 07:35:05;;;;;;;17.65;8.07;;;-0.80;99.90;;;;;;5052281;28;20048;-53
2022/03/03 07:37:40;;;;;;;18.02;8.65;;;-0.70;99.90;;;;;;5050909;28;20056;-57
2022/03/03 07:40:09;;;;;;;16.70;8.02;;;-0.60;99.90;;;;;;5061526;28;20033;-56
2022/03/03 07:42:37;;;;;;;16.17;7.63;;;-0.60;99.90;;;;;;5072067;28;20044;-55
2022/03/03 07:45:05;;;;;;;19.63;7.30;;;-0.60;99.90;;;;;;5072092;28;20116;-57
2022/03/03 07:47:33;;;;;;;16.95;7.60;;;-0.50;99.90;;;;;;5062503;28;20556;-53
2022/03/03 07:49:59;;;;;;;21.90;7.28;;;-0.40;99.90;;;;;;5063702;28;20052;-56
2022/03/03 07:52:28;;;;;;;20.55;7.93;;;-0.30;99.90;;;;;;5072058;28;20057;-53
2022/03/03 07:54:55;;;;;;;17.25;6.95;;;-0.30;99.90;;;;;;5069517;28;20087;-57
2022/03/03 07:57:23;;;;;;;15.05;5.55;;;-0.20;99.90;;;;;;5062487;28;20039;-51
2022/03/03 08:00:00;;;;;;;13.50;7.20;;;-0.20;99.90;;;;;;5071170;28;20041;-57
2022/03/03 08:02:32;;;;;;;15.90;6.63;;;-0.10;99.90;;;;;;5072304;28;20052;-54
2022/03/03 08:05:05;;;;;;;15.18;7.00;;;0.00;99.90;;;;;;5066731;28;20106;-57
2022/03/03 08:07:43;;;;;;;17.67;6.97;;;0.10;99.90;;;;;;5052465;28;20044;-53
2022/03/03 08:10:12;;;;;;;16.98;7.72;;;0.30;99.90;;;;;;5051872;28;20052;-56
2022/03/03 08:12:41;;;;;;;16.20;7.13;;;0.40;99.90;;;;;;5050638;28;20087;-54
2022/03/03 08:15:10;;;;;;;21.88;6.20;;;0.60;99.90;;;;;;5060984;28;20220;-58
2022/03/03 08:17:37;;;;;;;15.65;6.07;;;0.80;99.90;;;;;;5071228;28;20047;-55
2022/03/03 08:20:07;;;;;;;11.73;6.75;;;0.90;99.90;;;;;;5071775;28;20044;-52
2022/03/03 08:22:37;;;;;;;17.13;6.55;;;0.90;99.90;;;;;;5061037;28;20443;-50
2022/03/03 08:25:06;;;;;;;19.15;6.55;;;0.90;99.90;;;;;;5063110;28;20059;-53
2022/03/03 08:27:35;;;;;;;14.43;6.68;;;1.00;99.90;;;;;;5071008;28;20451;-57
2022/03/03 08:30:02;;;;;;;20.35;5.90;;;1.20;99.90;;;;;;5063547;28;20045;-56
2022/03/03 08:32:36;;;;;;;12.52;5.50;;;1.30;99.90;;;;;;5062744;28;20051;-54
2022/03/03 08:35:36;;;;;;;16.08;5.70;;;1.40;99.90;;;;;;5070905;22;20049;-62
2022/03/03 08:42:26;;;;;;;9.68;4.68;;;1.80;99.90;;;;;;5051281;28;20109;-62
2022/03/03 08:44:58;;;;;;;13.57;5.30;;;2.00;99.90;;;;;;5045037;28;20512;-62
2022/03/03 08:47:28;;;;;;;13.82;5.63;;;2.10;99.90;;;;;;5041215;28;20045;-62
2022/03/03 08:50:01;;;;;;;14.52;5.95;;;2.20;99.90;;;;;;5046936;28;20045;-62
2022/03/03 08:52:47;;;;;;;13.82;5.90;;;2.40;99.90;;;;;;5031132;28;20049;-61
2022/03/03 08:55:14;;;;;;;8.45;5.13;;;2.60;99.90;;;;;;5031433;28;20088;-62
2022/03/03 08:57:41;;;;;;;16.17;5.40;;;2.80;99.90;;;;;;5037163;28;20436;-62
2022/03/03 09:00:11;;;;;;;16.00;6.55;;;2.90;99.90;;;;;;5051038;28;20040;-62
2022/03/03 09:02:40;;;;;;;12.68;6.60;;;3.00;99.90;;;;;;5050936;28;20077;-61
2022/03/03 09:05:09;;;;;;;11.77;6.28;;;3.20;99.90;;;;;;5050890;28;20071;-62
2022/03/03 09:07:37;;;;;;;12.48;7.15;;;3.20;99.90;;;;;;5050100;28;20037;-62
2022/03/03 09:10:05;;;;;;;14.50;6.22;;;3.30;99.90;;;;;;5053014;28;20064;-60
2022/03/03 09:12:33;;;;;;;16.23;6.30;;;3.40;99.90;;;;;;5055325;28;20488;-62
2022/03/03 09:15:00;;;;;;;10.23;5.75;;;3.50;99.90;;;;;;5054048;28;20040;-60
2022/03/03 09:17:32;;;;;;;14.95;5.55;;;3.40;99.90;;;;;;5054992;28;20041;-62
2022/03/03 09:20:02;;;;;;;14.70;5.85;;;3.50;99.90;;;;;;5055289;28;20386;-62
2022/03/03 09:22:29;;;;;;;14.48;5.93;;;3.60;99.90;;;;;;5054645;28;20107;-59
2022/03/03 09:24:56;;;;;;;11.18;4.72;;;3.60;99.90;;;;;;5046763;28;20482;-62
2022/03/03 09:27:23;;;;;;;11.65;5.97;;;3.70;99.90;;;;;;5054425;28;20524;-60
2022/03/03 09:29:51;;;;;;;15.80;5.68;;;3.70;99.90;;;;;;5054791;28;20053;-59
2022/03/03 09:32:18;;;;;;;13.70;6.10;;;3.80;99.90;;;;;;5052703;28;20536;-61
2022/03/03 09:34:45;;;;;;;11.50;5.25;;;3.90;99.90;;;;;;5054527;28;20033;-62
2022/03/03 09:37:15;;;;;;;;;;;4.20;99.90;;;;;;5054949;28;20079;-62
2022/03/03 09:39:44;;;;;;;11.65;5.22;;;4.30;99.90;;;;;;5053268;28;20106;-62
2022/03/03 09:42:11;;;;;;;22.70;6.57;;;4.50;99.90;;;;;;5052063;28;20041;-62
2022/03/03 09:44:37;;;;;;;16.90;6.18;;;4.60;99.70;;;;;;5054224;28;20041;-61
2022/03/03 09:47:05;;;;;;;16.60;6.18;;;4.80;99.90;;;;;;5054285;28;20048;-62
2022/03/03 09:49:32;;;;;;;14.18;6.07;;;4.90;99.70;;;;;;5054404;28;20041;-61
2022/03/03 09:51:59;;;;;;;15.23;6.28;;;5.00;98.40;;;;;;5053804;28;20033;-61
2022/03/03 09:54:25;;;;;;;11.18;5.50;;;5.10;98.60;;;;;;5046054;28;20075;-62
2022/03/03 09:56:52;;;;;;;11.32;5.50;;;5.20;98.80;;;;;;5054124;28;20040;-62
2022/03/03 09:59:19;;;;;;;15.82;6.60;;;5.40;98.40;;;;;;5053327;28;20521;-62
2022/03/03 10:01:46;;;;;;;12.52;4.35;;;5.40;97.90;;;;;;5054062;28;20041;-62
2022/03/03 10:04:15;;;;;;;;;;;5.50;97.80;;;;;;5054506;28;20041;-62
2022/03/03 10:06:42;;;;;;;;;;;5.50;96.40;;;;;;5053759;28;19924;-62
2022/03/03 10:09:10;;;;;;;17.00;5.88;;;5.30;96.70;;;;;;5053637;28;20299;-62
2022/03/03 10:11:48;;;;;;;11.25;5.75;;;5.10;97.40;;;;;;5054201;28;20071;-62
2022/03/03 10:14:29;;;;;;;11.75;5.85;;;4.90;98.00;;;;;;5053870;28;20045;-62
2022/03/03 10:16:56;;;;;;;10.25;5.22;;;4.80;98.00;;;;;;5053307;28;20033;-61
2022/03/03 10:19:56;;;;;;;13.40;5.38;;;4.70;98.50;;;;;;5047139;28;20045;-62
2022/03/03 10:22:57;;;;;;;14.75;5.95;;;4.80;97.70;;;;;;5053047;28;20065;-62
2022/03/03 10:25:44;;;;;;;13.18;5.70;;;5.00;97.90;;;;;;5053451;28;20069;-62
2022/03/03 10:28:23;;;;;;;11.25;5.75;;;5.20;97.70;;;;;;5052020;28;20421;-62
2022/03/03 10:31:01;;;;;;;15.57;6.63;;;5.50;97.40;;;;;;5053169;28;20043;-62
2022/03/03 10:33:37;;;;;;;11.02;5.90;;;5.60;98.00;;;;;;5045639;28;20302;-62
2022/03/03 10:36:23;;;;;;;8.95;5.22;;;5.70;96.00;;;;;;5053233;28;20575;-62
2022/03/03 10:38:58;;;;;;;12.88;6.68;;;5.80;95.70;;;;;;5047920;28;20426;-62
2022/03/03 10:41:36;;;;;;;10.65;5.97;;;6.00;96.10;;;;;;5045232;28;20053;-62
2022/03/03 10:44:13;;;;;;;12.93;5.80;;;6.00;93.70;;;;;;5053067;28;20501;-61
2022/03/03 10:47:04;;;;;;;13.65;5.57;;;6.10;93.00;;;;;;5053310;28;20037;-62
2022/03/03 10:49:31;;;;;;;8.60;4.88;;;6.30;93.10;;;;;;5051829;28;20108;-61
2022/03/03 10:52:14;;;;;;;;;;;6.40;92.60;;;;;;5053563;28;20045;-62
2022/03/03 10:54:58;;;;;;;10.90;5.32;;;6.50;91.60;;;;;;5053015;28;19948;-62
2022/03/03 10:57:29;;;;;;;12.00;5.88;;;6.60;91.80;;;;;;5052456;28;20526;-62
2022/03/03 10:59:59;;;;;;;10.02;5.18;;;6.70;92.50;;;;;;5053075;28;20045;-62
2022/03/03 11:02:27;;;;;;;11.48;4.55;;;6.70;92.40;;;;;;5053051;28;20045;-61
2022/03/03 11:04:55;;;;;;;7.90;4.72;;;6.90;91.60;;;;;;5052642;28;20044;-62
2022/03/03 11:07:23;;;;;;;10.80;4.55;;;7.00;89.00;;;;;;5052253;28;20052;-62
2022/03/03 11:09:50;;;;;;;9.88;4.60;;;7.00;88.50;;;;;;5052669;28;20128;-62
2022/03/03 11:12:19;;;;;;;10.15;5.13;;;7.10;88.30;;;;;;5052945;28;20489;-62
2022/03/03 11:14:46;;;;;;;9.88;5.38;;;7.20;88.30;;;;;;5052364;28;20048;-62
2022/03/03 11:17:20;;;;;;;13.68;5.65;;;7.20;90.20;;;;;;5052695;28;20099;-62
2022/03/03 11:19:50;;;;;;;8.77;5.40;;;7.40;88.90;;;;;;5052469;28;20044;-62
2022/03/03 11:22:18;;;;;;;10.15;4.60;;;7.50;85.70;;;;;;5052142;28;20069;-62
2022/03/03 11:24:45;;;;;;;10.60;5.40;;;7.60;85.20;;;;;;5052205;28;20091;-61
2022/03/03 11:27:12;;;;;;;11.23;6.05;;;7.60;84.30;;;;;;5052641;28;20053;-61
2022/03/03 11:29:40;;;;;;;9.68;6.03;;;7.70;86.00;;;;;;5052236;28;20072;-61
2022/03/03 11:32:12;;;;;;;10.25;5.97;;;7.80;84.70;;;;;;5051968;28;20037;-61
2022/03/03 11:34:44;;;;;;;10.27;5.57;;;7.80;85.30;;;;;;5051171;28;20128;-61
2022/03/03 11:37:21;;;;;;;12.90;5.78;;;7.80;83.80;;;;;;5052891;28;20586;-61
2022/03/03 11:40:02;;;;;;;10.98;5.68;;;7.90;82.60;;;;;;5052244;28;20048;-62
2022/03/03 11:42:55;;;;;;;12.77;5.90;;;8.00;82.60;;;;;;5051595;28;20056;-61
2022/03/03 11:45:34;;;;;;;9.98;5.10;;;8.10;82.90;;;;;;5050964;28;20106;-61
2022/03/03 11:48:15;;;;;;;9.73;6.00;;;8.20;81.10;;;;;;5052035;28;20041;-61
2022/03/03 11:50:43;;;;;;;13.13;6.13;;;8.30;81.30;;;;;;5051435;28;20033;-62
2022/03/03 11:53:09;;;;;;;13.15;5.80;;;8.30;80.00;;;;;;5051662;28;20482;-61
2022/03/03 11:55:43;;;;;;;11.80;5.97;;;8.40;79.20;;;;;;5052300;28;20083;-61
2022/03/03 11:58:12;;;;;;;11.05;6.30;;;8.60;80.60;;;;;;5051599;28;20048;-61
2022/03/03 12:00:59;;;;;;;16.98;6.18;;;8.70;80.20;;;;;;5051454;28;20036;-61
2022/03/03 12:03:28;;;;;;;16.13;6.10;;;8.80;77.80;;;;;;5043979;28;20445;-61
2022/03/03 12:06:14;;;;;;;16.42;6.25;;;8.90;74.30;;;;;;5051717;28;20041;-61
2022/03/03 12:08:42;;;;;;;11.93;6.38;;;9.00;72.80;;;;;;5050960;28;20083;-61
2022/03/03 12:11:15;;;;;;;10.13;6.32;;;9.00;70.00;;;;;;5051738;28;20092;-61
2022/03/03 12:13:44;;;;;;;12.10;6.65;;;9.10;71.60;;;;;;5051718;28;20045;-61
2022/03/03 12:16:17;;;;;;;14.63;6.50;;;9.20;75.90;;;;;;5051046;28;20434;-61
2022/03/03 12:19:08;;;;;;;12.93;6.35;;;9.20;74.00;;;;;;5051218;28;20052;-61
2022/03/03 12:21:37;;;;;;;15.75;6.65;;;9.30;73.50;;;;;;5044381;28;20057;-61
2022/03/03 12:24:22;;;;;;;12.82;6.93;;;9.40;69.90;;;;;;5050827;28;20049;-61
2022/03/03 12:26:55;;;;;;;12.57;6.55;;;9.40;69.20;;;;;;5051314;28;20045;-62
2022/03/03 12:29:39;;;;;;;12.57;6.70;;;9.40;69.40;;;;;;5051400;28;20044;-61
2022/03/03 12:32:32;;;;;;;13.48;6.65;;;9.40;71.80;;;;;;5051426;28;20477;-62
2022/03/03 12:35:03;;;;;;;12.57;6.38;;;9.40;71.20;;;;;;5044983;28;20040;-61
2022/03/03 12:37:31;;;;;;;17.25;6.80;;;9.50;69.30;;;;;;5043301;28;20462;-61
2022/03/03 12:40:04;;;;;;;17.83;6.72;;;9.50;70.80;;;;;;5051417;28;20041;-61
2022/03/03 12:42:32;;;;;;;16.38;6.80;;;9.50;68.80;;;;;;5051391;28;20387;-61
2022/03/03 12:45:07;;;;;;;12.35;6.80;;;9.50;65.80;;;;;;5047200;28;20566;-61
2022/03/03 12:47:45;;;;;;;10.95;5.97;;;9.50;67.40;;;;;;5030906;28;20053;-61
2022/03/03 12:50:19;;;;;;;13.40;6.65;;;9.50;68.80;;;;;;5031212;28;20042;-61
2022/03/03 12:53:10;;;;;;;14.52;6.65;;;9.50;66.90;;;;;;5031702;28;20045;-61
2022/03/03 12:55:39;;;;;;;15.90;6.88;;;9.50;65.90;;;;;;5044607;28;20512;-61
2022/03/03 12:58:08;;;;;;;12.60;6.82;;;9.40;66.60;;;;;;5050720;28;20068;-61
2022/03/03 13:00:46;;;;;;;13.15;6.63;;;9.40;67.70;;;;;;5050869;28;20045;-61
2022/03/03 13:03:14;;;;;;;;;;;9.40;68.70;;;;;;5049513;28;20417;-61
2022/03/03 13:05:43;;;;;;;10.43;6.47;;;9.40;67.10;;;;;;5051064;28;20419;-61
2022/03/03 13:08:26;;;;;;;13.02;7.03;;;9.40;66.80;;;;;;5049560;28;20119;-61